Hannah, North Dakota
Current Conditions -  °F | °C
As of 9:55 PM on Wednesday 28 Jan 2015 (Local Time) from KD55 Reporting Station
Overcast Overcast  
Wind Chill:   Ceiling: 400
Heat Index: 19°   Visibility: 10mi
Dew Point: 18°   Wind: 23mph
Humidity: 93%   Direction: 330°NNW
Pressure: 30.07"   Gusts: 30mph
Location:  48.97°N, 98.69°W
Report Text: KD55 290355Z AUTO 33020G26KT 10SM OVC004 M07/M08 A3007 RMK AO2
Loading
Personal Weather Stations






























Interactive Weather Map New forecast layout! Learn more

10-Day Weather Forecast

Advertisements
Track Severe Weather on mobile